Time;durP1;ratioP1;P1;durP2;ratioP2;P2;SDS_P1;SDS_P2;PMS_P1;PMS_P2;Temp;Humidity;BMP_temperature;BMP_pressure;BME280_temperature;BME280_humidity;BME280_pressure;Samples;Min_cycle;Max_cycle;Signal;HPM_P1;HPM_P2
2021/05/13 00:00:28;;;;;;;12.65;1.48;;;;;;;;;;6839543;28;20061;-82
2021/05/13 00:03:53;;;;;;;10.35;1.77;;;;;;;;;;6834999;29;20082;-83
2021/05/13 00:07:14;;;;;;;5.05;1.38;;;;;;;;;;6846358;28;20085;-83
2021/05/13 00:10:34;;;;;;;6.35;1.50;;;;;;;;;;6840635;28;20090;-84
2021/05/13 00:13:54;;;;;;;2.10;1.00;;;;;;;;;;6839961;28;20031;-84
2021/05/13 00:17:15;;;;;;;10.63;1.83;;;;;;;;;;6849506;28;20043;-84
2021/05/13 00:20:39;;;;;;;10.32;1.60;;;;;;;;;;6839782;28;20039;-84
2021/05/13 00:23:59;;;;;;;3.80;1.60;;;;;;;;;;6842696;28;20465;-85
2021/05/13 00:27:19;;;;;;;6.30;1.50;;;;;;;;;;6848628;28;20086;-84
2021/05/13 00:30:40;;;;;;;6.72;1.60;;;;;;;;;;6933527;23;20153;-79
2021/05/13 00:34:01;;;;;;;5.53;1.60;;;;;;;;;;6887310;28;20033;-78
2021/05/13 00:37:21;;;;;;;3.08;1.45;;;;;;;;;;6883160;28;20030;-78
2021/05/13 00:40:42;;;;;;;4.95;1.30;;;;;;;;;;6907770;28;20126;-78
2021/05/13 00:44:03;;;;;;;3.47;1.45;;;;;;;;;;6903875;28;20140;-79
2021/05/13 00:47:25;;;;;;;4.95;1.35;;;;;;;;;;6896029;28;20080;-79
2021/05/13 00:50:46;;;;;;;3.00;1.20;;;;;;;;;;6892211;28;20065;-79
2021/05/13 00:54:06;;;;;;;3.42;1.05;;;;;;;;;;6893220;28;20057;-79
2021/05/13 00:57:27;;;;;;;7.97;1.48;;;;;;;;;;6892800;28;20382;-79
2021/05/13 01:04:08;;;;;;;4.72;1.20;;;;;;;;;;6905604;28;20030;-80
2021/05/13 01:07:28;;;;;;;4.70;1.30;;;;;;;;;;6917693;28;20073;-80
2021/05/13 01:10:48;;;;;;;6.22;1.27;;;;;;;;;;6906152;28;20116;-80
2021/05/13 01:17:42;;;;;;;6.13;1.80;;;;;;;;;;6880539;28;20471;-81
2021/05/13 01:21:03;;;;;;;1.90;1.13;;;;;;;;;;6876858;28;20038;-80
2021/05/13 01:24:23;;;;;;;2.70;0.98;;;;;;;;;;6878238;28;20039;-80
2021/05/13 01:27:44;;;;;;;5.30;1.20;;;;;;;;;;6899851;28;20084;-80
2021/05/13 01:31:04;;;;;;;5.50;1.20;;;;;;;;;;6891045;28;20046;-80
2021/05/13 01:34:25;;;;;;;13.50;1.73;;;;;;;;;;6882076;28;20076;-80
2021/05/13 01:37:45;;;;;;;2.60;1.17;;;;;;;;;;6904144;28;20026;-80
2021/05/13 01:41:05;;;;;;;2.33;1.10;;;;;;;;;;6893903;28;20100;-80
2021/05/13 01:44:26;;;;;;;4.85;1.10;;;;;;;;;;6893360;28;20105;-80
2021/05/13 01:47:46;;;;;;;9.13;1.30;;;;;;;;;;6917308;28;20061;-80
2021/05/13 01:51:07;;;;;;;3.22;1.10;;;;;;;;;;6889166;28;20038;-80
2021/05/13 01:54:28;;;;;;;2.25;1.10;;;;;;;;;;6896346;28;20022;-80
2021/05/13 01:57:48;;;;;;;5.80;1.00;;;;;;;;;;6878405;28;20076;-80
2021/05/13 02:01:11;;;;;;;4.60;1.33;;;;;;;;;;6899375;28;20452;-80
2021/05/13 02:04:31;;;;;;;2.45;1.08;;;;;;;;;;6897264;28;20030;-80
2021/05/13 02:07:52;;;;;;;2.53;1.10;;;;;;;;;;6890745;28;20092;-79
2021/05/13 02:11:12;;;;;;;7.90;1.50;;;;;;;;;;6904147;28;20065;-80
2021/05/13 02:14:32;;;;;;;1.80;0.95;;;;;;;;;;6881319;28;20030;-80
2021/05/13 02:17:53;;;;;;;3.58;0.90;;;;;;;;;;6900737;28;20463;-80
2021/05/13 02:21:14;;;;;;;6.35;1.30;;;;;;;;;;6879698;28;20448;-79
2021/05/13 02:24:34;;;;;;;2.83;1.13;;;;;;;;;;6888403;28;20459;-80
2021/05/13 02:27:54;;;;;;;1.77;0.93;;;;;;;;;;6908381;28;20058;-79
2021/05/13 02:31:15;;;;;;;1.17;0.90;;;;;;;;;;6889228;28;20046;-80
2021/05/13 02:34:36;;;;;;;1.65;1.08;;;;;;;;;;6889746;28;20039;-80
2021/05/13 02:37:57;;;;;;;3.80;1.10;;;;;;;;;;6875726;28;20158;-80
2021/05/13 02:41:18;;;;;;;5.80;1.10;;;;;;;;;;6889783;28;20030;-81
2021/05/13 02:44:38;;;;;;;3.25;0.82;;;;;;;;;;6884686;28;20384;-81
2021/05/13 02:47:58;;;;;;;1.98;0.90;;;;;;;;;;6890791;28;20480;-81
2021/05/13 02:51:20;;;;;;;1.95;0.98;;;;;;;;;;6885189;28;20471;-81
2021/05/13 02:54:40;;;;;;;1.00;0.75;;;;;;;;;;6890290;28;20072;-81
2021/05/13 02:58:01;;;;;;;2.55;1.00;;;;;;;;;;6889993;28;20069;-81
2021/05/13 03:01:26;;;;;;;4.90;1.35;;;;;;;;;;6877797;28;20037;-80
2021/05/13 03:04:46;;;;;;;2.00;0.90;;;;;;;;;;6879893;28;20026;-80
2021/05/13 03:08:07;;;;;;;1.13;0.88;;;;;;;;;;6882287;28;20456;-80
2021/05/13 03:11:28;;;;;;;2.20;1.20;;;;;;;;;;6889088;28;20018;-80
2021/05/13 03:14:48;;;;;;;3.45;1.00;;;;;;;;;;6882853;28;20031;-80
2021/05/13 03:18:09;;;;;;;1.67;0.80;;;;;;;;;;6890903;28;20070;-80
2021/05/13 03:21:36;;;;;;;2.47;1.05;;;;;;;;;;6896001;28;20018;-80
2021/05/13 03:25:04;;;;;;;4.07;1.20;;;;;;;;;;6895219;28;20022;-80
2021/05/13 03:28:24;;;;;;;2.42;0.80;;;;;;;;;;6896948;28;20038;-80
2021/05/13 03:31:45;;;;;;;2.10;1.15;;;;;;;;;;6885448;28;20082;-80
2021/05/13 03:35:06;;;;;;;4.20;1.25;;;;;;;;;;6892712;28;20035;-80
2021/05/13 03:38:26;;;;;;;3.53;0.82;;;;;;;;;;6885121;28;20065;-81
2021/05/13 03:41:47;;;;;;;1.08;0.88;;;;;;;;;;6883865;28;20519;-81
2021/05/13 03:45:08;;;;;;;1.92;0.90;;;;;;;;;;6887877;28;20484;-81
2021/05/13 03:48:28;;;;;;;2.10;1.00;;;;;;;;;;6898584;28;20058;-81
2021/05/13 03:51:49;;;;;;;3.10;1.13;;;;;;;;;;6914956;28;20037;-80
2021/05/13 03:55:10;;;;;;;1.65;0.93;;;;;;;;;;6887040;28;20022;-80
2021/05/13 03:58:36;;;;;;;1.58;0.80;;;;;;;;;;6897416;28;20503;-80
2021/05/13 04:05:24;;;;;;;7.53;0.80;;;;;;;;;;6894323;28;20034;-80
2021/05/13 04:08:48;;;;;;;1.67;1.00;;;;;;;;;;6880656;28;20391;-81
2021/05/13 04:12:09;;;;;;;8.75;0.77;;;;;;;;;;6888311;28;20035;-80
2021/05/13 04:15:29;;;;;;;2.72;0.95;;;;;;;;;;6886194;28;20053;-79
2021/05/13 04:18:50;;;;;;;3.22;0.70;;;;;;;;;;6893516;28;20030;-79
2021/05/13 04:22:12;;;;;;;1.70;0.82;;;;;;;;;;6879601;28;20061;-80
2021/05/13 04:25:32;;;;;;;1.60;0.85;;;;;;;;;;6882705;28;20052;-80
2021/05/13 04:28:52;;;;;;;1.52;1.00;;;;;;;;;;6903333;28;20120;-80
2021/05/13 04:32:13;;;;;;;1.60;0.70;;;;;;;;;;6892241;28;20030;-79
2021/05/13 04:35:34;;;;;;;4.50;0.80;;;;;;;;;;6907170;28;20148;-80
2021/05/13 04:38:54;;;;;;;0.65;0.65;;;;;;;;;;6892589;28;20038;-80
2021/05/13 04:42:14;;;;;;;1.38;0.80;;;;;;;;;;6893035;28;20039;-79
2021/05/13 04:45:35;;;;;;;4.25;0.93;;;;;;;;;;6919439;28;20038;-79
2021/05/13 04:49:15;;;;;;;2.15;0.77;;;;;;;;;;6907711;28;20372;-79
2021/05/13 04:52:36;;;;;;;1.92;0.88;;;;;;;;;;6891889;28;20477;-79
2021/05/13 04:55:57;;;;;;;2.40;0.85;;;;;;;;;;6892747;28;20034;-80
2021/05/13 04:59:17;;;;;;;1.17;0.70;;;;;;;;;;6919490;28;20073;-78
2021/05/13 05:02:38;;;;;;;3.95;0.93;;;;;;;;;;6893222;28;20030;-78
2021/05/13 05:05:58;;;;;;;4.38;0.80;;;;;;;;;;6918083;28;20133;-78
2021/05/13 05:09:19;;;;;;;1.35;1.00;;;;;;;;;;6918433;28;20041;-78
2021/05/13 05:12:40;;;;;;;2.35;0.98;;;;;;;;;;6907080;28;20030;-78
2021/05/13 05:16:01;;;;;;;7.35;0.90;;;;;;;;;;6880565;28;20042;-77
2021/05/13 05:19:21;;;;;;;2.80;0.80;;;;;;;;;;6895379;28;20415;-77
2021/05/13 05:22:41;;;;;;;6.90;0.80;;;;;;;;;;6910556;28;20037;-78
2021/05/13 05:26:02;;;;;;;1.38;0.85;;;;;;;;;;6879456;28;20399;-77
2021/05/13 05:29:22;;;;;;;1.58;0.70;;;;;;;;;;6897961;28;20081;-77
2021/05/13 05:32:43;;;;;;;1.40;0.95;;;;;;;;;;6883308;28;20039;-80
2021/05/13 05:36:03;;;;;;;2.03;1.83;;;;;;;;;;6882494;28;20408;-80
2021/05/13 05:39:24;;;;;;;2.00;1.80;;;;;;;;;;6877979;28;20026;-78
2021/05/13 05:42:45;;;;;;;2.28;2.08;;;;;;;;;;6881537;28;20031;-80
2021/05/13 05:46:05;;;;;;;6.60;5.80;;;;;;;;;;6875032;28;20023;-77
2021/05/13 05:49:25;;;;;;;6.10;5.70;;;;;;;;;;6881925;28;20037;-80
2021/05/13 05:52:46;;;;;;;11.00;4.57;;;;;;;;;;6888782;28;20041;-80
2021/05/13 05:56:07;;;;;;;1.20;0.95;;;;;;;;;;6885332;28;20026;-81
2021/05/13 05:59:27;;;;;;;1.52;1.10;;;;;;;;;;6869993;28;20109;-80
2021/05/13 06:02:48;;;;;;;2.90;1.10;;;;;;;;;;6880302;28;20046;-80
2021/05/13 06:06:08;;;;;;;1.15;0.70;;;;;;;;;;6879077;28;20076;-81
2021/05/13 06:09:29;;;;;;;2.58;0.80;;;;;;;;;;6883970;28;20363;-81
2021/05/13 06:12:52;;;;;;;0.85;0.70;;;;;;;;;;6868086;28;20022;-79
2021/05/13 06:16:12;;;;;;;0.88;0.80;;;;;;;;;;6875909;28;20049;-80
2021/05/13 06:19:33;;;;;;;1.38;0.60;;;;;;;;;;6878875;28;20069;-81
2021/05/13 06:22:53;;;;;;;0.85;0.65;;;;;;;;;;6885771;28;20070;-79
2021/05/13 06:26:28;;;;;;;5.03;0.68;;;;;;;;;;6884413;28;20048;-80
2021/05/13 06:29:48;;;;;;;0.57;0.57;;;;;;;;;;6903284;28;20054;-80
2021/05/13 06:33:09;;;;;;;1.23;0.63;;;;;;;;;;6905567;28;20114;-80
2021/05/13 06:36:29;;;;;;;3.08;0.95;;;;;;;;;;6892633;28;20133;-80
2021/05/13 06:39:50;;;;;;;1.38;0.80;;;;;;;;;;6897401;28;20070;-80
2021/05/13 06:43:10;;;;;;;1.25;0.77;;;;;;;;;;6903859;28;20057;-83
2021/05/13 06:46:31;;;;;;;5.05;0.73;;;;;;;;;;6896817;28;20026;-83
2021/05/13 06:49:51;;;;;;;2.20;0.98;;;;;;;;;;6883331;28;20117;-80
2021/05/13 06:53:11;;;;;;;1.25;0.70;;;;;;;;;;6903470;28;20387;-85
2021/05/13 06:56:32;;;;;;;0.98;0.70;;;;;;;;;;6899622;28;20042;-80
2021/05/13 06:59:53;;;;;;;2.92;0.50;;;;;;;;;;6889742;28;20435;-80
2021/05/13 07:03:14;;;;;;;0.73;0.70;;;;;;;;;;6886722;28;20706;-78
2021/05/13 07:06:36;;;;;;;2.63;0.98;;;;;;;;;;6884601;28;20037;-79
2021/05/13 07:09:56;;;;;;;7.55;0.90;;;;;;;;;;6878748;28;20034;-79
2021/05/13 07:13:17;;;;;;;0.90;0.80;;;;;;;;;;6869276;28;20041;-80
2021/05/13 07:16:37;;;;;;;1.83;0.73;;;;;;;;;;6870486;28;20110;-81
2021/05/13 07:19:58;;;;;;;12.40;1.20;;;;;;;;;;6874637;28;20124;-82
2021/05/13 07:23:18;;;;;;;5.65;0.98;;;;;;;;;;6872937;28;20110;-81
2021/05/13 07:26:39;;;;;;;3.05;0.90;;;;;;;;;;6889377;28;20066;-81
2021/05/13 07:29:59;;;;;;;2.97;0.75;;;;;;;;;;6909812;28;20133;-80
2021/05/13 07:33:20;;;;;;;3.08;0.90;;;;;;;;;;6898933;28;20110;-81
2021/05/13 07:36:40;;;;;;;2.53;0.77;;;;;;;;;;6883882;28;20034;-80
2021/05/13 07:40:03;;;;;;;1.75;0.82;;;;;;;;;;6878915;28;20030;-82
2021/05/13 07:43:24;;;;;;;5.35;0.68;;;;;;;;;;6876415;28;20061;-81
2021/05/13 07:46:44;;;;;;;1.33;0.65;;;;;;;;;;6897767;28;20476;-85
2021/05/13 07:50:10;;;;;;;3.45;1.25;;;;;;;;;;6898621;28;20112;-82
2021/05/13 07:53:30;;;;;;;4.53;0.98;;;;;;;;;;6896634;28;20023;-82
2021/05/13 07:56:51;;;;;;;10.70;1.05;;;;;;;;;;6905637;28;20033;-82
2021/05/13 08:00:12;;;;;;;4.18;1.30;;;;;;;;;;6896602;28;20050;-83
2021/05/13 08:03:33;;;;;;;5.80;1.58;;;;;;;;;;6888595;28;20046;-83
2021/05/13 08:06:53;;;;;;;5.50;1.48;;;;;;;;;;6898639;28;20359;-83
2021/05/13 08:10:14;;;;;;;7.90;1.33;;;;;;;;;;6899617;28;20535;-83
2021/05/13 08:13:35;;;;;;;2.78;1.20;;;;;;;;;;6901824;28;20097;-83
2021/05/13 08:16:56;;;;;;;7.65;1.45;;;;;;;;;;6888337;28;20029;-82
2021/05/13 08:20:17;;;;;;;6.13;1.35;;;;;;;;;;6904568;28;20415;-84
2021/05/13 08:23:37;;;;;;;2.90;1.20;;;;;;;;;;6894065;28;20109;-84
2021/05/13 08:26:58;;;;;;;6.50;1.45;;;;;;;;;;6901186;28;20399;-85
2021/05/13 08:30:20;;;;;;;3.38;1.80;;;;;;;;;;6906983;28;20062;-82
2021/05/13 08:33:40;;;;;;;7.00;2.10;;;;;;;;;;6879692;28;20042;-85
2021/05/13 08:37:02;;;;;;;4.35;1.85;;;;;;;;;;6875111;28;20065;-85
2021/05/13 08:40:22;;;;;;;3.58;1.63;;;;;;;;;;6864849;28;20485;-89
2021/05/13 08:43:48;;;;;;;4.15;1.65;;;;;;;;;;6851801;28;20034;-87
2021/05/13 08:47:09;;;;;;;2.25;1.40;;;;;;;;;;6868820;28;20035;-88
2021/05/13 08:50:29;;;;;;;4.70;1.80;;;;;;;;;;6865620;28;20027;-87
2021/05/13 08:53:53;;;;;;;2.85;1.63;;;;;;;;;;6877065;28;20104;-87
2021/05/13 08:57:13;;;;;;;6.45;1.60;;;;;;;;;;6867367;28;20170;-89
2021/05/13 09:00:33;;;;;;;2.95;1.60;;;;;;;;;;6866193;28;20095;-88
2021/05/13 09:03:54;;;;;;;4.05;1.58;;;;;;;;;;6865464;28;20035;-86
2021/05/13 09:07:32;;;;;;;2.90;1.30;;;;;;;;;;6844134;28;20027;-83
2021/05/13 09:10:53;;;;;;;4.03;1.40;;;;;;;;;;6853003;28;20094;-83
2021/05/13 09:14:29;;;;;;;5.20;1.55;;;;;;;;;;6858672;28;20070;-88
2021/05/13 09:17:51;;;;;;;2.67;1.20;;;;;;;;;;6856411;28;20046;-84
2021/05/13 09:21:11;;;;;;;6.82;1.55;;;;;;;;;;6850492;28;20027;-84
2021/05/13 09:24:54;;;;;;;2.35;1.42;;;;;;;;;;6845740;28;20075;-85
2021/05/13 09:28:24;;;;;;;3.97;1.23;;;;;;;;;;6863418;28;20026;-85
2021/05/13 09:31:46;;;;;;;2.90;1.20;;;;;;;;;;6874820;28;20117;-84
2021/05/13 09:35:10;;;;;;;4.80;1.77;;;;;;;;;;6872806;28;20035;-84
2021/05/13 09:38:32;;;;;;;2.47;1.48;;;;;;;;;;6855344;28;20062;-84
2021/05/13 09:42:01;;;;;;;4.32;1.30;;;;;;;;;;6865750;28;20037;-84
2021/05/13 09:45:40;;;;;;;2.47;1.10;;;;;;;;;;6865126;28;20473;-84
2021/05/13 09:49:02;;;;;;;3.08;1.27;;;;;;;;;;6841220;28;20035;-84
2021/05/13 09:52:43;;;;;;;1.88;1.20;;;;;;;;;;6859432;28;20492;-84
2021/05/13 09:56:23;;;;;;;3.40;1.50;;;;;;;;;;6842191;28;20050;-83
2021/05/13 09:59:47;;;;;;;2.95;1.40;;;;;;;;;;6855592;28;20066;-83
2021/05/13 10:03:11;;;;;;;3.15;1.23;;;;;;;;;;6860737;28;20032;-85
2021/05/13 10:06:31;;;;;;;2.97;1.10;;;;;;;;;;6839685;28;20038;-85
2021/05/13 10:09:52;;;;;;;4.05;1.10;;;;;;;;;;6847792;28;20030;-83
2021/05/13 10:13:16;;;;;;;11.65;1.38;;;;;;;;;;6848933;28;20019;-83
2021/05/13 10:16:38;;;;;;;4.25;1.27;;;;;;;;;;6858466;28;20038;-86
2021/05/13 10:19:59;;;;;;;2.63;1.10;;;;;;;;;;6857997;28;20050;-86
2021/05/13 10:23:21;;;;;;;4.15;1.42;;;;;;;;;;6859651;28;20050;-85
2021/05/13 10:26:51;;;;;;;3.55;1.50;;;;;;;;;;6883459;28;20061;-85
2021/05/13 10:30:14;;;;;;;1.73;1.20;;;;;;;;;;6853200;28;20476;-85
2021/05/13 10:33:50;;;;;;;3.38;1.40;;;;;;;;;;6874414;28;20041;-82
2021/05/13 10:37:34;;;;;;;2.55;1.20;;;;;;;;;;6868877;28;20026;-84
2021/05/13 10:41:03;;;;;;;3.70;1.02;;;;;;;;;;6860089;28;20030;-81
2021/05/13 10:44:24;;;;;;;2.08;1.20;;;;;;;;;;6864307;28;20127;-84
2021/05/13 10:47:44;;;;;;;2.33;1.30;;;;;;;;;;6869241;28;20041;-81
2021/05/13 10:51:07;;;;;;;1.27;1.10;;;;;;;;;;6866501;28;20037;-81
2021/05/13 10:54:27;;;;;;;3.60;1.35;;;;;;;;;;6864693;28;20038;-82
2021/05/13 10:57:52;;;;;;;3.00;1.20;;;;;;;;;;6860327;28;20035;-84
2021/05/13 11:01:48;;;;;;;3.58;1.10;;;;;;;;;;6869847;28;20050;-82
2021/05/13 11:05:45;;;;;;;1.77;1.00;;;;;;;;;;6853959;28;20117;-80
2021/05/13 11:09:05;;;;;;;5.45;1.38;;;;;;;;;;6844259;28;20086;-83
2021/05/13 11:12:37;;;;;;;1.65;1.15;;;;;;;;;;6856485;28;20045;-84
2021/05/13 11:15:58;;;;;;;10.65;1.33;;;;;;;;;;6861628;28;20041;-83
2021/05/13 11:19:23;;;;;;;4.88;2.15;;;;;;;;;;6863340;28;20030;-83
2021/05/13 11:22:57;;;;;;;4.68;2.10;;;;;;;;;;6860882;28;20054;-84
2021/05/13 11:26:18;;;;;;;5.63;2.00;;;;;;;;;;6874103;28;20034;-84
2021/05/13 11:29:46;;;;;;;3.55;2.40;;;;;;;;;;6850150;28;20055;-82
2021/05/13 11:33:09;;;;;;;3.15;1.95;;;;;;;;;;6863287;28;20100;-83
2021/05/13 11:36:37;;;;;;;3.28;2.45;;;;;;;;;;6865807;28;20116;-83
2021/05/13 11:40:25;;;;;;;2.05;1.60;;;;;;;;;;6867806;28;20039;-83
2021/05/13 11:43:46;;;;;;;2.07;1.60;;;;;;;;;;6853879;28;20476;-84
2021/05/13 11:47:06;;;;;;;2.85;1.73;;;;;;;;;;6853920;28;20031;-83
2021/05/13 11:50:29;;;;;;;2.25;1.50;;;;;;;;;;6855166;28;20126;-80
2021/05/13 11:53:52;;;;;;;5.85;1.75;;;;;;;;;;6862570;28;20035;-79
2021/05/13 11:57:13;;;;;;;2.65;1.48;;;;;;;;;;6873932;28;20035;-80
2021/05/13 12:00:33;;;;;;;3.10;1.63;;;;;;;;;;6854861;28;20189;-83
2021/05/13 12:03:53;;;;;;;3.83;1.63;;;;;;;;;;6866465;28;20031;-82
2021/05/13 12:07:15;;;;;;;1.70;1.42;;;;;;;;;;6843685;28;20037;-83
2021/05/13 12:10:35;;;;;;;4.72;2.03;;;;;;;;;;6856970;28;20038;-83
2021/05/13 12:13:57;;;;;;;2.65;1.30;;;;;;;;;;6855254;28;20066;-83
2021/05/13 12:17:19;;;;;;;1.90;1.30;;;;;;;;;;6858368;28;20460;-83
2021/05/13 12:20:41;;;;;;;1.92;1.20;;;;;;;;;;6851962;28;20031;-82
2021/05/13 12:24:03;;;;;;;2.83;1.20;;;;;;;;;;6850425;28;20035;-83
2021/05/13 12:27:24;;;;;;;2.92;1.42;;;;;;;;;;6874811;28;20472;-82
2021/05/13 12:30:55;;;;;;;1.27;1.10;;;;;;;;;;6897006;23;20062;-82
2021/05/13 12:34:31;;;;;;;2.05;1.30;;;;;;;;;;6907696;28;20033;-83
2021/05/13 12:37:52;;;;;;;2.22;1.00;;;;;;;;;;6910875;28;20057;-82
2021/05/13 12:41:16;;;;;;;2.05;1.20;;;;;;;;;;6907567;28;20376;-82
2021/05/13 12:44:36;;;;;;;1.80;1.17;;;;;;;;;;6903712;28;20030;-81
2021/05/13 12:48:01;;;;;;;1.27;1.10;;;;;;;;;;6918263;28;20064;-83
2021/05/13 12:51:24;;;;;;;1.45;1.02;;;;;;;;;;6917142;28;20496;-82
2021/05/13 12:54:45;;;;;;;1.25;1.02;;;;;;;;;;6923147;28;20030;-83
2021/05/13 12:58:17;;;;;;;2.88;1.40;;;;;;;;;;6907915;28;20486;-83
2021/05/13 13:01:40;;;;;;;1.25;1.15;;;;;;;;;;6918857;28;20524;-86
2021/05/13 13:05:03;;;;;;;1.83;1.38;;;;;;;;;;6903137;28;20033;-85
2021/05/13 13:08:46;;;;;;;3.20;1.10;;;;;;;;;;6906440;28;20038;-85
2021/05/13 13:12:14;;;;;;;3.65;1.20;;;;;;;;;;6913333;28;20032;-86
2021/05/13 13:19:11;;;;;;;1.90;1.20;;;;;;;;;;6911150;28;20030;-85
2021/05/13 13:22:32;;;;;;;2.45;1.17;;;;;;;;;;6905954;28;20035;-84
2021/05/13 13:25:56;;;;;;;3.10;1.20;;;;;;;;;;6905963;28;20037;-84
2021/05/13 13:29:16;;;;;;;6.65;1.10;;;;;;;;;;6920099;28;20045;-86
2021/05/13 13:32:39;;;;;;;1.45;1.17;;;;;;;;;;6915373;28;20022;-85
2021/05/13 13:36:01;;;;;;;5.78;1.52;;;;;;;;;;6917978;28;20116;-85
2021/05/13 13:39:22;;;;;;;4.93;1.15;;;;;;;;;;6922367;28;20034;-87
2021/05/13 13:42:42;;;;;;;5.22;1.50;;;;;;;;;;6904134;28;20030;-95
2021/05/13 13:46:02;;;;;;;1.50;1.23;;;;;;;;;;6921651;28;20755;-88
2021/05/13 13:49:23;;;;;;;4.47;1.15;;;;;;;;;;6922465;28;20022;-91
2021/05/13 13:52:43;;;;;;;5.22;1.50;;;;;;;;;;6921998;28;20026;-90
2021/05/13 13:56:04;;;;;;;2.95;1.20;;;;;;;;;;6888781;28;20045;-90
2021/05/13 13:59:24;;;;;;;4.68;1.42;;;;;;;;;;6919913;28;20025;-90
2021/05/13 14:02:46;;;;;;;2.42;1.08;;;;;;;;;;6909665;28;20034;-87
2021/05/13 14:06:06;;;;;;;3.63;1.20;;;;;;;;;;6920807;28;20053;-89
2021/05/13 14:09:26;;;;;;;3.13;1.05;;;;;;;;;;6929596;28;20060;-92
2021/05/13 14:12:47;;;;;;;6.60;1.70;;;;;;;;;;6904088;28;20089;-89
2021/05/13 14:16:13;;;;;;;3.13;0.98;;;;;;;;;;6906823;28;20093;-87
2021/05/13 14:19:33;;;;;;;1.88;1.38;;;;;;;;;;6917835;28;20386;-87
2021/05/13 14:22:53;;;;;;;3.00;1.30;;;;;;;;;;6919564;28;20486;-86
2021/05/13 14:26:14;;;;;;;2.08;1.08;;;;;;;;;;6919144;28;20037;-88
2021/05/13 14:29:34;;;;;;;6.30;1.35;;;;;;;;;;6920000;28;20057;-85
2021/05/13 14:32:55;;;;;;;2.47;1.42;;;;;;;;;;6904570;28;20065;-90
2021/05/13 14:36:15;;;;;;;3.40;1.33;;;;;;;;;;6914048;28;20025;-87
2021/05/13 14:39:36;;;;;;;1.52;1.00;;;;;;;;;;6903753;28;20064;-87
2021/05/13 14:43:20;;;;;;;3.53;1.25;;;;;;;;;;6926222;28;20044;-90
2021/05/13 14:46:40;;;;;;;4.72;1.10;;;;;;;;;;6858534;28;20039;-93
2021/05/13 14:50:01;;;;;;;4.43;1.50;;;;;;;;;;6859092;28;20035;-90
2021/05/13 14:53:21;;;;;;;1.38;1.00;;;;;;;;;;6870960;28;20074;-91
2021/05/13 14:56:42;;;;;;;4.53;1.30;;;;;;;;;;6869595;28;20630;-90
2021/05/13 15:00:03;;;;;;;1.58;1.15;;;;;;;;;;6866344;28;20037;-88
2021/05/13 15:03:26;;;;;;;4.47;1.00;;;;;;;;;;6866008;28;20469;-88
2021/05/13 15:06:46;;;;;;;1.85;1.23;;;;;;;;;;6852618;28;20042;-86
2021/05/13 15:10:08;;;;;;;1.45;1.10;;;;;;;;;;6854616;28;20062;-86
2021/05/13 15:13:29;;;;;;;1.70;0.90;;;;;;;;;;6874345;28;20042;-89
2021/05/13 15:16:49;;;;;;;2.08;1.10;;;;;;;;;;6860170;28;20074;-88
2021/05/13 15:20:11;;;;;;;3.78;1.17;;;;;;;;;;6864460;28;20468;-89
2021/05/13 15:23:32;;;;;;;1.27;0.77;;;;;;;;;;6875164;28;20074;-87
2021/05/13 15:26:52;;;;;;;2.53;1.40;;;;;;;;;;6918390;28;20030;-88
2021/05/13 15:30:13;;;;;;;8.20;1.30;;;;;;;;;;6916960;28;20081;-89
2021/05/13 15:33:33;;;;;;;1.63;0.85;;;;;;;;;;6907196;28;20056;-85
2021/05/13 15:36:54;;;;;;;1.73;0.80;;;;;;;;;;6899123;28;20040;-86
2021/05/13 15:40:15;;;;;;;1.75;1.08;;;;;;;;;;6904091;28;20061;-88
2021/05/13 15:43:35;;;;;;;4.07;1.50;;;;;;;;;;6917292;28;20025;-93
2021/05/13 15:46:56;;;;;;;2.53;1.15;;;;;;;;;;6944146;28;20461;-92
2021/05/13 15:50:16;;;;;;;3.58;1.30;;;;;;;;;;6916544;28;20062;-89
2021/05/13 15:53:37;;;;;;;1.73;0.93;;;;;;;;;;6927066;28;20044;-91
2021/05/13 15:56:58;;;;;;;3.03;1.40;;;;;;;;;;6928260;28;20364;-90
2021/05/13 16:00:19;;;;;;;4.45;1.30;;;;;;;;;;6921032;28;20475;-88
2021/05/13 16:03:39;;;;;;;2.10;1.30;;;;;;;;;;6910843;28;20056;-88
2021/05/13 16:07:00;;;;;;;3.58;1.23;;;;;;;;;;6913449;28;20451;-92
2021/05/13 16:10:37;;;;;;;2.97;1.30;;;;;;;;;;6916237;28;20196;-90
2021/05/13 16:13:57;;;;;;;2.63;1.10;;;;;;;;;;6899810;28;20390;-90
2021/05/13 16:17:19;;;;;;;4.05;1.38;;;;;;;;;;6909053;28;20428;-90
2021/05/13 16:20:40;;;;;;;3.05;1.25;;;;;;;;;;6914336;28;20030;-91
2021/05/13 16:24:00;;;;;;;2.95;0.95;;;;;;;;;;6910471;28;20031;-91
2021/05/13 16:27:21;;;;;;;1.95;0.90;;;;;;;;;;6892639;28;20120;-90
2021/05/13 16:30:41;;;;;;;1.27;0.95;;;;;;;;;;6923363;28;20053;-89
2021/05/13 16:34:04;;;;;;;3.65;1.25;;;;;;;;;;6901620;28;20492;-87
2021/05/13 16:37:24;;;;;;;1.83;0.80;;;;;;;;;;6909441;28;20442;-88
2021/05/13 16:40:44;;;;;;;4.00;0.80;;;;;;;;;;6923921;28;20375;-90
2021/05/13 16:44:05;;;;;;;2.42;1.00;;;;;;;;;;6890692;28;20045;-92
2021/05/13 16:47:26;;;;;;;1.83;1.10;;;;;;;;;;6927719;28;20502;-84
2021/05/13 16:50:46;;;;;;;3.67;1.15;;;;;;;;;;6912893;28;20031;-85
2021/05/13 16:54:07;;;;;;;4.85;1.10;;;;;;;;;;6918841;28;20064;-85
2021/05/13 16:57:27;;;;;;;1.52;0.90;;;;;;;;;;6916913;28;20455;-83
2021/05/13 17:00:47;;;;;;;2.03;1.30;;;;;;;;;;6918187;28;20460;-85
2021/05/13 17:04:12;;;;;;;4.80;1.10;;;;;;;;;;6916768;28;20157;-86
2021/05/13 17:07:33;;;;;;;3.95;1.20;;;;;;;;;;6911123;28;20065;-86
2021/05/13 17:10:54;;;;;;;3.65;0.80;;;;;;;;;;6918101;28;20041;-85
2021/05/13 17:14:14;;;;;;;3.05;1.20;;;;;;;;;;6927669;28;20037;-85
2021/05/13 17:17:37;;;;;;;4.22;0.95;;;;;;;;;;6901744;28;20027;-85
2021/05/13 17:20:58;;;;;;;4.25;0.80;;;;;;;;;;6907988;28;20039;-85
2021/05/13 17:24:19;;;;;;;1.52;1.00;;;;;;;;;;6912912;28;20108;-86
2021/05/13 17:27:40;;;;;;;3.55;0.85;;;;;;;;;;6933683;28;20037;-85
2021/05/13 17:31:00;;;;;;;2.45;1.25;;;;;;;;;;6918662;28;20046;-86
2021/05/13 17:34:20;;;;;;;2.60;0.85;;;;;;;;;;6926149;28;20057;-86
2021/05/13 17:37:41;;;;;;;2.72;1.08;;;;;;;;;;6919504;28;20475;-86
2021/05/13 17:41:04;;;;;;;2.70;0.95;;;;;;;;;;6929238;28;20104;-86
2021/05/13 17:44:25;;;;;;;1.63;1.42;;;;;;;;;;6917904;28;20034;-86
2021/05/13 17:47:45;;;;;;;1.65;0.98;;;;;;;;;;6900565;28;20121;-86
2021/05/13 17:51:06;;;;;;;4.82;1.10;;;;;;;;;;6919133;28;20036;-86
2021/05/13 17:54:26;;;;;;;2.03;1.10;;;;;;;;;;6904216;28;20029;-86
2021/05/13 17:57:48;;;;;;;4.53;1.30;;;;;;;;;;6918435;28;20076;-87
2021/05/13 18:01:10;;;;;;;7.65;1.13;;;;;;;;;;6918749;28;20034;-87
2021/05/13 18:04:30;;;;;;;10.63;1.67;;;;;;;;;;6915369;28;20052;-87
2021/05/13 18:07:51;;;;;;;12.00;1.52;;;;;;;;;;6911221;28;20046;-88
2021/05/13 18:11:12;;;;;;;10.38;1.10;;;;;;;;;;6918965;28;20041;-89
2021/05/13 18:14:32;;;;;;;15.02;1.40;;;;;;;;;;6887019;28;20041;-88
2021/05/13 18:17:53;;;;;;;2.65;1.00;;;;;;;;;;6905708;28;20029;-87
2021/05/13 18:21:13;;;;;;;5.60;1.20;;;;;;;;;;6914701;28;20069;-87
2021/05/13 18:24:36;;;;;;;2.30;1.08;;;;;;;;;;6915352;28;20410;-87
2021/05/13 18:27:57;;;;;;;3.38;0.90;;;;;;;;;;6909674;28;20517;-87
2021/05/13 18:31:17;;;;;;;7.35;1.40;;;;;;;;;;6917019;28;20042;-87
2021/05/13 18:34:38;;;;;;;8.27;1.13;;;;;;;;;;6899856;28;20045;-87
2021/05/13 18:37:58;;;;;;;2.17;1.10;;;;;;;;;;6916905;28;20723;-88
2021/05/13 18:41:19;;;;;;;4.88;1.20;;;;;;;;;;6920511;28;20467;-86
2021/05/13 18:44:39;;;;;;;5.10;1.45;;;;;;;;;;6927932;28;20428;-88
2021/05/13 18:48:00;;;;;;;3.90;1.15;;;;;;;;;;6923864;28;20065;-88
2021/05/13 18:51:20;;;;;;;2.00;0.88;;;;;;;;;;6925590;28;20068;-88
2021/05/13 18:54:41;;;;;;;2.25;0.90;;;;;;;;;;6916430;28;20040;-88
2021/05/13 18:58:01;;;;;;;2.45;1.10;;;;;;;;;;6932339;28;20034;-88
2021/05/13 19:01:22;;;;;;;4.25;0.88;;;;;;;;;;6933190;28;20033;-88
2021/05/13 19:04:42;;;;;;;3.78;1.05;;;;;;;;;;6909005;28;20045;-88
2021/05/13 19:08:03;;;;;;;2.88;1.45;;;;;;;;;;6916003;28;20410;-88
2021/05/13 19:11:23;;;;;;;3.47;0.90;;;;;;;;;;6906555;28;20037;-88
2021/05/13 19:14:43;;;;;;;1.98;0.98;;;;;;;;;;6923204;28;20034;-88
2021/05/13 19:18:06;;;;;;;4.38;1.10;;;;;;;;;;6895449;28;20061;-88
2021/05/13 19:21:26;;;;;;;4.03;1.10;;;;;;;;;;6901699;28;20045;-91
2021/05/13 19:24:48;;;;;;;3.25;1.48;;;;;;;;;;6908778;28;20057;-88
2021/05/13 19:28:08;;;;;;;5.05;1.17;;;;;;;;;;6924200;28;20590;-88
2021/05/13 19:31:39;;;;;;;3.55;1.35;;;;;;;;;;6897858;28;20061;-90
2021/05/13 19:35:16;;;;;;;4.57;1.00;;;;;;;;;;6915483;28;20136;-88
2021/05/13 19:38:36;;;;;;;1.23;1.10;;;;;;;;;;6914327;28;20038;-89
2021/05/13 19:41:56;;;;;;;2.33;0.73;;;;;;;;;;6914538;28;20064;-88
2021/05/13 19:45:17;;;;;;;2.45;1.05;;;;;;;;;;6914547;28;20068;-88
2021/05/13 19:48:37;;;;;;;3.80;1.00;;;;;;;;;;6914098;28;20033;-88
2021/05/13 19:51:58;;;;;;;2.53;0.90;;;;;;;;;;6912937;28;20034;-88
2021/05/13 19:55:19;;;;;;;6.35;1.05;;;;;;;;;;6897706;28;20151;-88
2021/05/13 19:58:42;;;;;;;5.57;1.13;;;;;;;;;;6910343;28;20465;-88
2021/05/13 20:09:27;;;;;;;4.35;1.13;;;;;;;;;;6921141;28;20033;-88
2021/05/13 20:12:47;;;;;;;4.03;1.45;;;;;;;;;;6920844;28;20037;-88
2021/05/13 20:16:12;;;;;;;3.85;1.10;;;;;;;;;;6919295;28;20097;-87
2021/05/13 20:19:32;;;;;;;1.45;0.95;;;;;;;;;;6936218;28;20061;-87
2021/05/13 20:22:59;;;;;;;3.90;0.90;;;;;;;;;;6925217;28;20460;-87
2021/05/13 20:26:39;;;;;;;4.05;1.08;;;;;;;;;;6920389;28;20590;-87
2021/05/13 20:30:00;;;;;;;7.90;0.90;;;;;;;;;;6908021;28;20050;-86
2021/05/13 20:33:20;;;;;;;1.45;1.00;;;;;;;;;;6917460;28;20175;-86